sensor_id;sensor_type;location;lat;lon;timestamp;P1;durP1;ratioP1;P2;durP2;ratioP2
37677;SDS011;23517;50.390;8.616;2023-07-20T00:00:02;6.88;;;2.05;;
37677;SDS011;23517;50.390;8.616;2023-07-20T00:02:37;5.35;;;2.00;;
37677;SDS011;23517;50.390;8.616;2023-07-20T00:05:04;3.28;;;1.58;;
37677;SDS011;23517;50.390;8.616;2023-07-20T00:07:32;7.45;;;1.60;;
37677;SDS011;23517;50.390;8.616;2023-07-20T00:09:59;4.57;;;1.73;;
37677;SDS011;23517;50.390;8.616;2023-07-20T00:12:25;4.13;;;1.60;;
37677;SDS011;23517;50.390;8.616;2023-07-20T00:14:52;6.35;;;1.73;;
37677;SDS011;23517;50.390;8.616;2023-07-20T00:17:19;3.92;;;2.13;;
37677;SDS011;23517;50.390;8.616;2023-07-20T00:19:46;5.50;;;1.88;;
37677;SDS011;23517;50.390;8.616;2023-07-20T00:22:13;6.20;;;1.83;;
37677;SDS011;23517;50.390;8.616;2023-07-20T00:24:40;4.05;;;1.77;;
37677;SDS011;23517;50.390;8.616;2023-07-20T00:27:06;5.00;;;1.60;;
37677;SDS011;23517;50.390;8.616;2023-07-20T00:29:33;3.63;;;1.58;;
37677;SDS011;23517;50.390;8.616;2023-07-20T00:32:01;4.55;;;1.80;;
37677;SDS011;23517;50.390;8.616;2023-07-20T00:34:31;8.90;;;2.03;;
37677;SDS011;23517;50.390;8.616;2023-07-20T00:36:57;3.80;;;1.55;;
37677;SDS011;23517;50.390;8.616;2023-07-20T00:39:24;6.13;;;1.80;;
37677;SDS011;23517;50.390;8.616;2023-07-20T00:41:51;4.20;;;1.80;;
37677;SDS011;23517;50.390;8.616;2023-07-20T00:44:18;6.43;;;2.15;;
37677;SDS011;23517;50.390;8.616;2023-07-20T00:46:44;8.68;;;1.85;;
37677;SDS011;23517;50.390;8.616;2023-07-20T00:49:12;4.15;;;2.00;;
37677;SDS011;23517;50.390;8.616;2023-07-20T00:51:40;5.18;;;1.90;;
37677;SDS011;23517;50.390;8.616;2023-07-20T00:54:07;3.85;;;1.85;;
37677;SDS011;23517;50.390;8.616;2023-07-20T00:56:34;6.18;;;2.03;;
37677;SDS011;23517;50.390;8.616;2023-07-20T00:59:02;7.35;;;2.30;;
37677;SDS011;23517;50.390;8.616;2023-07-20T01:01:29;8.60;;;2.83;;
37677;SDS011;23517;50.390;8.616;2023-07-20T01:03:56;7.97;;;2.85;;
37677;SDS011;23517;50.390;8.616;2023-07-20T01:06:36;4.70;;;2.60;;
37677;SDS011;23517;50.390;8.616;2023-07-20T01:09:26;6.60;;;2.80;;
37677;SDS011;23517;50.390;8.616;2023-07-20T01:12:07;8.85;;;2.60;;
37677;SDS011;23517;50.390;8.616;2023-07-20T01:14:40;6.03;;;2.60;;
37677;SDS011;23517;50.390;8.616;2023-07-20T01:17:07;5.20;;;2.25;;
37677;SDS011;23517;50.390;8.616;2023-07-20T01:19:34;5.78;;;2.35;;
37677;SDS011;23517;50.390;8.616;2023-07-20T01:25:11;11.25;;;2.50;;
37677;SDS011;23517;50.390;8.616;2023-07-20T01:31:21;6.03;;;2.50;;
37677;SDS011;23517;50.390;8.616;2023-07-20T01:33:55;7.47;;;2.45;;
37677;SDS011;23517;50.390;8.616;2023-07-20T01:36:24;5.78;;;2.45;;
37677;SDS011;23517;50.390;8.616;2023-07-20T01:38:53;7.35;;;2.40;;
37677;SDS011;23517;50.390;8.616;2023-07-20T01:41:20;12.65;;;2.78;;
37677;SDS011;23517;50.390;8.616;2023-07-20T01:43:47;6.00;;;2.28;;
37677;SDS011;23517;50.390;8.616;2023-07-20T01:46:14;6.38;;;2.22;;
37677;SDS011;23517;50.390;8.616;2023-07-20T01:48:41;7.18;;;2.25;;
37677;SDS011;23517;50.390;8.616;2023-07-20T01:51:08;9.70;;;2.80;;
37677;SDS011;23517;50.390;8.616;2023-07-20T01:53:35;8.35;;;2.35;;
37677;SDS011;23517;50.390;8.616;2023-07-20T01:56:02;8.45;;;2.55;;
37677;SDS011;23517;50.390;8.616;2023-07-20T01:58:28;5.97;;;2.50;;
37677;SDS011;23517;50.390;8.616;2023-07-20T02:00:55;5.97;;;2.35;;
37677;SDS011;23517;50.390;8.616;2023-07-20T02:03:22;8.13;;;2.22;;
37677;SDS011;23517;50.390;8.616;2023-07-20T02:05:51;7.18;;;2.08;;
37677;SDS011;23517;50.390;8.616;2023-07-20T02:08:18;4.10;;;2.00;;
37677;SDS011;23517;50.390;8.616;2023-07-20T02:10:46;5.25;;;2.17;;
37677;SDS011;23517;50.390;8.616;2023-07-20T02:13:14;8.10;;;2.58;;
37677;SDS011;23517;50.390;8.616;2023-07-20T02:15:44;4.50;;;1.98;;
37677;SDS011;23517;50.390;8.616;2023-07-20T02:18:14;7.40;;;2.35;;
37677;SDS011;23517;50.390;8.616;2023-07-20T02:20:41;5.80;;;2.65;;
37677;SDS011;23517;50.390;8.616;2023-07-20T02:23:08;8.70;;;2.60;;
37677;SDS011;23517;50.390;8.616;2023-07-20T02:25:37;7.63;;;2.33;;
37677;SDS011;23517;50.390;8.616;2023-07-20T02:28:04;7.40;;;2.55;;
37677;SDS011;23517;50.390;8.616;2023-07-20T02:30:33;5.93;;;2.40;;
37677;SDS011;23517;50.390;8.616;2023-07-20T02:33:03;4.10;;;1.98;;
37677;SDS011;23517;50.390;8.616;2023-07-20T02:35:32;4.72;;;2.45;;
37677;SDS011;23517;50.390;8.616;2023-07-20T02:37:59;7.20;;;2.50;;
37677;SDS011;23517;50.390;8.616;2023-07-20T02:40:25;6.28;;;2.60;;
37677;SDS011;23517;50.390;8.616;2023-07-20T02:42:53;7.28;;;2.92;;
37677;SDS011;23517;50.390;8.616;2023-07-20T02:45:20;6.90;;;2.38;;
37677;SDS011;23517;50.390;8.616;2023-07-20T02:47:47;4.13;;;2.38;;
37677;SDS011;23517;50.390;8.616;2023-07-20T02:50:13;6.70;;;2.58;;
37677;SDS011;23517;50.390;8.616;2023-07-20T02:52:40;9.52;;;3.08;;
37677;SDS011;23517;50.390;8.616;2023-07-20T02:55:07;5.25;;;2.53;;
37677;SDS011;23517;50.390;8.616;2023-07-20T02:57:35;6.55;;;2.83;;
37677;SDS011;23517;50.390;8.616;2023-07-20T03:00:02;4.15;;;2.28;;
37677;SDS011;23517;50.390;8.616;2023-07-20T03:02:31;6.05;;;2.28;;
37677;SDS011;23517;50.390;8.616;2023-07-20T03:04:58;5.10;;;2.58;;
37677;SDS011;23517;50.390;8.616;2023-07-20T03:07:27;4.95;;;2.17;;
37677;SDS011;23517;50.390;8.616;2023-07-20T03:09:54;4.35;;;1.92;;
37677;SDS011;23517;50.390;8.616;2023-07-20T03:12:21;6.22;;;2.47;;
37677;SDS011;23517;50.390;8.616;2023-07-20T03:14:49;4.40;;;2.17;;
37677;SDS011;23517;50.390;8.616;2023-07-20T03:17:16;4.47;;;2.40;;
37677;SDS011;23517;50.390;8.616;2023-07-20T03:19:43;6.30;;;2.53;;
37677;SDS011;23517;50.390;8.616;2023-07-20T03:22:10;6.88;;;2.38;;
37677;SDS011;23517;50.390;8.616;2023-07-20T03:24:36;4.30;;;2.20;;
37677;SDS011;23517;50.390;8.616;2023-07-20T03:27:03;4.30;;;2.10;;
37677;SDS011;23517;50.390;8.616;2023-07-20T03:29:31;9.27;;;2.38;;
37677;SDS011;23517;50.390;8.616;2023-07-20T03:31:59;6.15;;;2.53;;
37677;SDS011;23517;50.390;8.616;2023-07-20T03:34:26;3.78;;;1.80;;
37677;SDS011;23517;50.390;8.616;2023-07-20T03:36:52;6.43;;;1.90;;
37677;SDS011;23517;50.390;8.616;2023-07-20T03:39:22;5.43;;;1.95;;
37677;SDS011;23517;50.390;8.616;2023-07-20T03:41:49;7.13;;;2.00;;
37677;SDS011;23517;50.390;8.616;2023-07-20T03:44:15;4.85;;;2.17;;
37677;SDS011;23517;50.390;8.616;2023-07-20T03:46:43;3.53;;;1.90;;
37677;SDS011;23517;50.390;8.616;2023-07-20T03:49:10;3.25;;;2.15;;
37677;SDS011;23517;50.390;8.616;2023-07-20T03:51:37;4.03;;;2.28;;
37677;SDS011;23517;50.390;8.616;2023-07-20T03:54:03;3.25;;;2.00;;
37677;SDS011;23517;50.390;8.616;2023-07-20T03:56:30;3.42;;;1.88;;
37677;SDS011;23517;50.390;8.616;2023-07-20T03:59:01;5.43;;;2.10;;
37677;SDS011;23517;50.390;8.616;2023-07-20T04:01:28;3.58;;;2.10;;
37677;SDS011;23517;50.390;8.616;2023-07-20T04:03:55;4.60;;;1.70;;
37677;SDS011;23517;50.390;8.616;2023-07-20T04:06:22;3.33;;;1.52;;
37677;SDS011;23517;50.390;8.616;2023-07-20T04:08:49;5.18;;;1.95;;
37677;SDS011;23517;50.390;8.616;2023-07-20T04:11:15;2.72;;;1.80;;
37677;SDS011;23517;50.390;8.616;2023-07-20T04:13:42;2.88;;;1.83;;
37677;SDS011;23517;50.390;8.616;2023-07-20T04:16:08;3.78;;;1.80;;
37677;SDS011;23517;50.390;8.616;2023-07-20T04:18:35;3.83;;;1.73;;
37677;SDS011;23517;50.390;8.616;2023-07-20T04:21:02;3.58;;;1.98;;
37677;SDS011;23517;50.390;8.616;2023-07-20T04:23:29;4.35;;;1.85;;
37677;SDS011;23517;50.390;8.616;2023-07-20T04:25:55;2.22;;;1.38;;
37677;SDS011;23517;50.390;8.616;2023-07-20T04:28:23;2.15;;;1.30;;
37677;SDS011;23517;50.390;8.616;2023-07-20T04:30:49;8.43;;;1.70;;
37677;SDS011;23517;50.390;8.616;2023-07-20T04:33:17;2.95;;;1.70;;
37677;SDS011;23517;50.390;8.616;2023-07-20T04:38:11;2.67;;;1.52;;
37677;SDS011;23517;50.390;8.616;2023-07-20T04:40:38;5.63;;;1.60;;
37677;SDS011;23517;50.390;8.616;2023-07-20T04:43:04;3.45;;;1.75;;
37677;SDS011;23517;50.390;8.616;2023-07-20T04:45:32;6.07;;;1.70;;
37677;SDS011;23517;50.390;8.616;2023-07-20T04:47:58;2.42;;;1.58;;
37677;SDS011;23517;50.390;8.616;2023-07-20T04:50:25;4.10;;;1.95;;
37677;SDS011;23517;50.390;8.616;2023-07-20T04:52:54;3.58;;;1.90;;
37677;SDS011;23517;50.390;8.616;2023-07-20T04:55:21;2.08;;;1.58;;
37677;SDS011;23517;50.390;8.616;2023-07-20T04:57:47;2.63;;;1.60;;
37677;SDS011;23517;50.390;8.616;2023-07-20T05:00:14;3.92;;;1.70;;
37677;SDS011;23517;50.390;8.616;2023-07-20T05:02:42;4.15;;;1.70;;
37677;SDS011;23517;50.390;8.616;2023-07-20T05:05:09;4.00;;;1.10;;
37677;SDS011;23517;50.390;8.616;2023-07-20T05:07:36;4.57;;;1.55;;
37677;SDS011;23517;50.390;8.616;2023-07-20T05:10:02;3.20;;;1.40;;
37677;SDS011;23517;50.390;8.616;2023-07-20T05:12:29;2.70;;;1.50;;
37677;SDS011;23517;50.390;8.616;2023-07-20T05:14:56;4.82;;;1.50;;
37677;SDS011;23517;50.390;8.616;2023-07-20T05:17:23;2.90;;;1.45;;
37677;SDS011;23517;50.390;8.616;2023-07-20T05:19:50;3.60;;;2.42;;
37677;SDS011;23517;50.390;8.616;2023-07-20T05:22:17;3.38;;;1.95;;
37677;SDS011;23517;50.390;8.616;2023-07-20T05:24:44;2.35;;;1.60;;
37677;SDS011;23517;50.390;8.616;2023-07-20T05:27:11;3.20;;;1.80;;
37677;SDS011;23517;50.390;8.616;2023-07-20T05:29:42;5.25;;;2.03;;
37677;SDS011;23517;50.390;8.616;2023-07-20T05:32:11;4.50;;;1.85;;
37677;SDS011;23517;50.390;8.616;2023-07-20T05:34:39;2.83;;;1.55;;
37677;SDS011;23517;50.390;8.616;2023-07-20T05:37:06;4.90;;;1.80;;
37677;SDS011;23517;50.390;8.616;2023-07-20T05:39:33;3.65;;;1.98;;
37677;SDS011;23517;50.390;8.616;2023-07-20T05:42:00;4.07;;;1.60;;
37677;SDS011;23517;50.390;8.616;2023-07-20T05:44:26;5.75;;;2.10;;
37677;SDS011;23517;50.390;8.616;2023-07-20T05:46:53;3.75;;;1.80;;
37677;SDS011;23517;50.390;8.616;2023-07-20T05:49:23;2.25;;;1.90;;
37677;SDS011;23517;50.390;8.616;2023-07-20T05:51:51;4.32;;;1.67;;
37677;SDS011;23517;50.390;8.616;2023-07-20T05:54:17;3.67;;;1.92;;
37677;SDS011;23517;50.390;8.616;2023-07-20T05:56:45;4.20;;;1.90;;
37677;SDS011;23517;50.390;8.616;2023-07-20T05:59:12;6.90;;;1.95;;
37677;SDS011;23517;50.390;8.616;2023-07-20T06:01:39;3.83;;;1.80;;
37677;SDS011;23517;50.390;8.616;2023-07-20T06:04:09;4.82;;;1.90;;
37677;SDS011;23517;50.390;8.616;2023-07-20T06:06:36;3.95;;;1.58;;
37677;SDS011;23517;50.390;8.616;2023-07-20T06:09:02;2.60;;;1.60;;
37677;SDS011;23517;50.390;8.616;2023-07-20T06:11:30;3.72;;;1.58;;
37677;SDS011;23517;50.390;8.616;2023-07-20T06:13:57;2.63;;;1.30;;
37677;SDS011;23517;50.390;8.616;2023-07-20T06:16:24;3.53;;;1.55;;
37677;SDS011;23517;50.390;8.616;2023-07-20T06:18:51;3.20;;;1.50;;
37677;SDS011;23517;50.390;8.616;2023-07-20T06:21:18;3.75;;;1.52;;
37677;SDS011;23517;50.390;8.616;2023-07-20T06:23:44;3.55;;;1.73;;
37677;SDS011;23517;50.390;8.616;2023-07-20T06:26:12;4.03;;;1.92;;
37677;SDS011;23517;50.390;8.616;2023-07-20T06:28:38;3.85;;;1.70;;
37677;SDS011;23517;50.390;8.616;2023-07-20T06:31:05;7.20;;;2.25;;
37677;SDS011;23517;50.390;8.616;2023-07-20T06:33:32;6.43;;;2.75;;
37677;SDS011;23517;50.390;8.616;2023-07-20T06:35:59;6.55;;;2.50;;
37677;SDS011;23517;50.390;8.616;2023-07-20T06:38:25;6.38;;;2.55;;
37677;SDS011;23517;50.390;8.616;2023-07-20T06:40:55;5.82;;;2.53;;
37677;SDS011;23517;50.390;8.616;2023-07-20T06:43:22;5.93;;;2.60;;
37677;SDS011;23517;50.390;8.616;2023-07-20T06:45:52;4.80;;;2.30;;
37677;SDS011;23517;50.390;8.616;2023-07-20T06:48:20;7.82;;;2.83;;
37677;SDS011;23517;50.390;8.616;2023-07-20T06:50:47;4.82;;;2.60;;
37677;SDS011;23517;50.390;8.616;2023-07-20T06:53:14;5.43;;;2.67;;
37677;SDS011;23517;50.390;8.616;2023-07-20T06:55:43;5.82;;;2.70;;
37677;SDS011;23517;50.390;8.616;2023-07-20T06:58:10;3.72;;;2.15;;
37677;SDS011;23517;50.390;8.616;2023-07-20T07:00:37;7.68;;;2.85;;
37677;SDS011;23517;50.390;8.616;2023-07-20T07:03:04;5.25;;;2.67;;
37677;SDS011;23517;50.390;8.616;2023-07-20T07:05:31;8.82;;;2.78;;
37677;SDS011;23517;50.390;8.616;2023-07-20T07:08:03;5.85;;;2.30;;
37677;SDS011;23517;50.390;8.616;2023-07-20T07:10:31;6.10;;;2.60;;
37677;SDS011;23517;50.390;8.616;2023-07-20T07:12:59;7.05;;;3.42;;
37677;SDS011;23517;50.390;8.616;2023-07-20T07:15:26;6.75;;;3.20;;
37677;SDS011;23517;50.390;8.616;2023-07-20T07:17:54;5.25;;;3.30;;
37677;SDS011;23517;50.390;8.616;2023-07-20T07:20:21;4.50;;;3.13;;
37677;SDS011;23517;50.390;8.616;2023-07-20T07:22:50;4.00;;;2.40;;
37677;SDS011;23517;50.390;8.616;2023-07-20T07:25:22;4.90;;;2.42;;
37677;SDS011;23517;50.390;8.616;2023-07-20T07:27:49;5.22;;;2.72;;
37677;SDS011;23517;50.390;8.616;2023-07-20T07:30:18;6.72;;;2.80;;
37677;SDS011;23517;50.390;8.616;2023-07-20T07:32:44;5.82;;;2.97;;
37677;SDS011;23517;50.390;8.616;2023-07-20T07:35:11;6.47;;;2.50;;
37677;SDS011;23517;50.390;8.616;2023-07-20T07:37:38;3.65;;;2.38;;
37677;SDS011;23517;50.390;8.616;2023-07-20T07:40:22;5.60;;;2.20;;
37677;SDS011;23517;50.390;8.616;2023-07-20T07:42:51;5.38;;;2.20;;
37677;SDS011;23517;50.390;8.616;2023-07-20T07:45:17;5.18;;;2.53;;
37677;SDS011;23517;50.390;8.616;2023-07-20T07:47:44;5.07;;;2.13;;
37677;SDS011;23517;50.390;8.616;2023-07-20T07:50:11;4.57;;;2.13;;
37677;SDS011;23517;50.390;8.616;2023-07-20T07:52:38;3.38;;;2.20;;
37677;SDS011;23517;50.390;8.616;2023-07-20T07:55:04;5.82;;;2.75;;
37677;SDS011;23517;50.390;8.616;2023-07-20T07:57:32;6.65;;;2.60;;
37677;SDS011;23517;50.390;8.616;2023-07-20T07:59:58;5.72;;;2.55;;
37677;SDS011;23517;50.390;8.616;2023-07-20T08:02:25;4.47;;;2.53;;
37677;SDS011;23517;50.390;8.616;2023-07-20T08:04:52;4.15;;;2.47;;
37677;SDS011;23517;50.390;8.616;2023-07-20T08:07:19;5.97;;;2.90;;
37677;SDS011;23517;50.390;8.616;2023-07-20T08:09:45;5.00;;;2.58;;
37677;SDS011;23517;50.390;8.616;2023-07-20T08:12:12;4.38;;;2.83;;
37677;SDS011;23517;50.390;8.616;2023-07-20T08:14:39;5.30;;;3.00;;
37677;SDS011;23517;50.390;8.616;2023-07-20T08:17:06;4.68;;;2.60;;
37677;SDS011;23517;50.390;8.616;2023-07-20T08:19:33;6.18;;;2.78;;
37677;SDS011;23517;50.390;8.616;2023-07-20T08:22:01;5.40;;;2.72;;
37677;SDS011;23517;50.390;8.616;2023-07-20T08:24:28;5.93;;;2.63;;
37677;SDS011;23517;50.390;8.616;2023-07-20T08:26:55;13.50;;;2.78;;
37677;SDS011;23517;50.390;8.616;2023-07-20T08:29:22;7.18;;;2.58;;
37677;SDS011;23517;50.390;8.616;2023-07-20T08:31:49;4.32;;;2.17;;
37677;SDS011;23517;50.390;8.616;2023-07-20T08:34:16;5.30;;;1.90;;
37677;SDS011;23517;50.390;8.616;2023-07-20T08:36:56;5.75;;;2.10;;
37677;SDS011;23517;50.390;8.616;2023-07-20T08:39:24;3.95;;;2.00;;
37677;SDS011;23517;50.390;8.616;2023-07-20T08:41:51;4.22;;;1.77;;
37677;SDS011;23517;50.390;8.616;2023-07-20T08:44:18;5.32;;;1.80;;
37677;SDS011;23517;50.390;8.616;2023-07-20T08:46:45;3.35;;;2.05;;
37677;SDS011;23517;50.390;8.616;2023-07-20T08:49:13;4.20;;;1.75;;
37677;SDS011;23517;50.390;8.616;2023-07-20T08:51:45;5.03;;;1.90;;
37677;SDS011;23517;50.390;8.616;2023-07-20T08:54:12;2.70;;;1.63;;
37677;SDS011;23517;50.390;8.616;2023-07-20T08:56:41;4.00;;;1.75;;
37677;SDS011;23517;50.390;8.616;2023-07-20T08:59:09;3.25;;;1.70;;
37677;SDS011;23517;50.390;8.616;2023-07-20T09:01:36;6.38;;;1.70;;
37677;SDS011;23517;50.390;8.616;2023-07-20T09:04:05;3.10;;;1.58;;
37677;SDS011;23517;50.390;8.616;2023-07-20T09:06:32;4.65;;;1.55;;
37677;SDS011;23517;50.390;8.616;2023-07-20T09:09:01;5.72;;;1.65;;
37677;SDS011;23517;50.390;8.616;2023-07-20T09:11:28;2.47;;;1.50;;
37677;SDS011;23517;50.390;8.616;2023-07-20T09:14:03;2.85;;;1.42;;
37677;SDS011;23517;50.390;8.616;2023-07-20T09:16:55;4.50;;;1.80;;
37677;SDS011;23517;50.390;8.616;2023-07-20T09:19:21;8.10;;;1.77;;
37677;SDS011;23517;50.390;8.616;2023-07-20T09:21:49;5.90;;;1.63;;
37677;SDS011;23517;50.390;8.616;2023-07-20T09:24:18;5.38;;;1.77;;
37677;SDS011;23517;50.390;8.616;2023-07-20T09:26:46;2.35;;;1.40;;
37677;SDS011;23517;50.390;8.616;2023-07-20T09:29:14;4.10;;;1.08;;
37677;SDS011;23517;50.390;8.616;2023-07-20T09:31:58;3.40;;;1.20;;
37677;SDS011;23517;50.390;8.616;2023-07-20T09:34:30;4.25;;;1.13;;
37677;SDS011;23517;50.390;8.616;2023-07-20T09:37:00;1.50;;;1.05;;
37677;SDS011;23517;50.390;8.616;2023-07-20T09:39:28;4.95;;;1.60;;
37677;SDS011;23517;50.390;8.616;2023-07-20T09:41:59;2.60;;;1.15;;
37677;SDS011;23517;50.390;8.616;2023-07-20T09:44:30;3.13;;;1.20;;
37677;SDS011;23517;50.390;8.616;2023-07-20T09:47:02;10.90;;;1.27;;
37677;SDS011;23517;50.390;8.616;2023-07-20T09:49:31;6.95;;;1.30;;
37677;SDS011;23517;50.390;8.616;2023-07-20T09:52:18;1.58;;;0.80;;
37677;SDS011;23517;50.390;8.616;2023-07-20T09:54:48;3.80;;;1.10;;
37677;SDS011;23517;50.390;8.616;2023-07-20T09:57:15;5.70;;;0.80;;
37677;SDS011;23517;50.390;8.616;2023-07-20T09:59:43;2.47;;;0.98;;
37677;SDS011;23517;50.390;8.616;2023-07-20T10:02:12;2.38;;;1.08;;
37677;SDS011;23517;50.390;8.616;2023-07-20T10:04:49;2.13;;;1.00;;
37677;SDS011;23517;50.390;8.616;2023-07-20T10:07:21;2.42;;;0.90;;
37677;SDS011;23517;50.390;8.616;2023-07-20T10:09:51;6.20;;;1.27;;
37677;SDS011;23517;50.390;8.616;2023-07-20T10:12:20;3.45;;;0.88;;
37677;SDS011;23517;50.390;8.616;2023-07-20T10:14:54;2.05;;;1.10;;
37677;SDS011;23517;50.390;8.616;2023-07-20T10:18:09;2.47;;;1.15;;
37677;SDS011;23517;50.390;8.616;2023-07-20T10:20:49;1.65;;;0.73;;
37677;SDS011;23517;50.390;8.616;2023-07-20T10:23:23;7.25;;;1.02;;
37677;SDS011;23517;50.390;8.616;2023-07-20T10:25:50;1.75;;;0.88;;
37677;SDS011;23517;50.390;8.616;2023-07-20T10:28:17;1.40;;;0.90;;
37677;SDS011;23517;50.390;8.616;2023-07-20T10:30:43;1.58;;;0.98;;
37677;SDS011;23517;50.390;8.616;2023-07-20T10:33:11;1.80;;;1.05;;
37677;SDS011;23517;50.390;8.616;2023-07-20T10:35:55;1.88;;;0.98;;
37677;SDS011;23517;50.390;8.616;2023-07-20T10:38:44;1.52;;;1.00;;
37677;SDS011;23517;50.390;8.616;2023-07-20T10:43:48;4.45;;;1.40;;
37677;SDS011;23517;50.390;8.616;2023-07-20T10:46:16;1.58;;;1.00;;
37677;SDS011;23517;50.390;8.616;2023-07-20T10:49:06;3.20;;;0.98;;
37677;SDS011;23517;50.390;8.616;2023-07-20T10:52:17;2.78;;;1.40;;
37677;SDS011;23517;50.390;8.616;2023-07-20T10:56:52;0.77;;;0.70;;
37677;SDS011;23517;50.390;8.616;2023-07-20T11:01:57;2.28;;;0.98;;
37677;SDS011;23517;50.390;8.616;2023-07-20T11:04:39;1.77;;;0.85;;
37677;SDS011;23517;50.390;8.616;2023-07-20T11:07:16;2.38;;;0.80;;
37677;SDS011;23517;50.390;8.616;2023-07-20T11:10:12;3.95;;;0.93;;
37677;SDS011;23517;50.390;8.616;2023-07-20T11:18:34;2.25;;;1.10;;
37677;SDS011;23517;50.390;8.616;2023-07-20T11:21:07;2.75;;;0.95;;
37677;SDS011;23517;50.390;8.616;2023-07-20T11:23:35;3.20;;;1.17;;
37677;SDS011;23517;50.390;8.616;2023-07-20T11:26:05;2.70;;;1.20;;
37677;SDS011;23517;50.390;8.616;2023-07-20T11:28:33;3.05;;;1.13;;
37677;SDS011;23517;50.390;8.616;2023-07-20T11:31:00;5.65;;;1.08;;
37677;SDS011;23517;50.390;8.616;2023-07-20T11:33:27;5.40;;;1.10;;
37677;SDS011;23517;50.390;8.616;2023-07-20T11:35:54;2.03;;;1.13;;
37677;SDS011;23517;50.390;8.616;2023-07-20T11:38:20;5.70;;;1.17;;
37677;SDS011;23517;50.390;8.616;2023-07-20T11:40:47;2.15;;;1.00;;
37677;SDS011;23517;50.390;8.616;2023-07-20T11:43:14;1.42;;;0.80;;
37677;SDS011;23517;50.390;8.616;2023-07-20T11:45:44;2.85;;;1.10;;
37677;SDS011;23517;50.390;8.616;2023-07-20T11:48:15;3.83;;;1.30;;
37677;SDS011;23517;50.390;8.616;2023-07-20T11:50:42;2.65;;;1.08;;
37677;SDS011;23517;50.390;8.616;2023-07-20T11:53:09;3.33;;;1.00;;
37677;SDS011;23517;50.390;8.616;2023-07-20T11:55:36;5.70;;;1.10;;
37677;SDS011;23517;50.390;8.616;2023-07-20T11:58:04;4.05;;;1.20;;
37677;SDS011;23517;50.390;8.616;2023-07-20T12:00:32;1.70;;;1.10;;
37677;SDS011;23517;50.390;8.616;2023-07-20T12:03:00;1.90;;;1.00;;
37677;SDS011;23517;50.390;8.616;2023-07-20T12:05:27;1.85;;;1.00;;
37677;SDS011;23517;50.390;8.616;2023-07-20T12:07:54;2.20;;;1.05;;
37677;SDS011;23517;50.390;8.616;2023-07-20T12:10:27;2.20;;;1.10;;
37677;SDS011;23517;50.390;8.616;2023-07-20T12:12:54;2.80;;;0.90;;
37677;SDS011;23517;50.390;8.616;2023-07-20T12:15:29;1.75;;;0.90;;
37677;SDS011;23517;50.390;8.616;2023-07-20T12:17:58;5.18;;;1.40;;
37677;SDS011;23517;50.390;8.616;2023-07-20T12:20:32;1.10;;;1.00;;
37677;SDS011;23517;50.390;8.616;2023-07-20T12:23:12;2.97;;;0.90;;
37677;SDS011;23517;50.390;8.616;2023-07-20T12:25:40;5.53;;;0.80;;
37677;SDS011;23517;50.390;8.616;2023-07-20T12:28:13;4.47;;;1.15;;
37677;SDS011;23517;50.390;8.616;2023-07-20T12:30:43;1.08;;;0.70;;
37677;SDS011;23517;50.390;8.616;2023-07-20T12:33:11;2.78;;;1.00;;
37677;SDS011;23517;50.390;8.616;2023-07-20T12:35:42;2.13;;;0.80;;
37677;SDS011;23517;50.390;8.616;2023-07-20T12:38:11;5.95;;;1.00;;
37677;SDS011;23517;50.390;8.616;2023-07-20T12:40:38;4.72;;;1.00;;
37677;SDS011;23517;50.390;8.616;2023-07-20T12:43:06;1.10;;;0.70;;
37677;SDS011;23517;50.390;8.616;2023-07-20T12:45:33;3.78;;;1.00;;
37677;SDS011;23517;50.390;8.616;2023-07-20T12:48:00;1.65;;;0.82;;
37677;SDS011;23517;50.390;8.616;2023-07-20T12:50:26;2.75;;;0.80;;
37677;SDS011;23517;50.390;8.616;2023-07-20T12:52:53;1.70;;;1.00;;
37677;SDS011;23517;50.390;8.616;2023-07-20T12:55:20;3.22;;;0.80;;
37677;SDS011;23517;50.390;8.616;2023-07-20T12:57:47;2.33;;;0.80;;
37677;SDS011;23517;50.390;8.616;2023-07-20T13:00:14;1.73;;;0.70;;
37677;SDS011;23517;50.390;8.616;2023-07-20T13:02:42;1.77;;;0.95;;
37677;SDS011;23517;50.390;8.616;2023-07-20T13:05:09;1.88;;;0.90;;
37677;SDS011;23517;50.390;8.616;2023-07-20T13:07:37;1.38;;;0.73;;
37677;SDS011;23517;50.390;8.616;2023-07-20T13:10:08;0.80;;;0.80;;
37677;SDS011;23517;50.390;8.616;2023-07-20T13:12:37;2.10;;;1.10;;
37677;SDS011;23517;50.390;8.616;2023-07-20T13:15:05;2.63;;;1.00;;
37677;SDS011;23517;50.390;8.616;2023-07-20T13:17:37;3.22;;;0.95;;
37677;SDS011;23517;50.390;8.616;2023-07-20T13:20:05;6.00;;;0.82;;
37677;SDS011;23517;50.390;8.616;2023-07-20T13:22:36;2.38;;;0.88;;
37677;SDS011;23517;50.390;8.616;2023-07-20T13:25:04;4.15;;;1.20;;
37677;SDS011;23517;50.390;8.616;2023-07-20T13:27:32;1.40;;;0.85;;
37677;SDS011;23517;50.390;8.616;2023-07-20T13:30:00;1.67;;;0.80;;
37677;SDS011;23517;50.390;8.616;2023-07-20T13:32:31;1.08;;;0.73;;
37677;SDS011;23517;50.390;8.616;2023-07-20T13:35:00;2.08;;;0.75;;
37677;SDS011;23517;50.390;8.616;2023-07-20T13:37:27;0.82;;;0.80;;
37677;SDS011;23517;50.390;8.616;2023-07-20T13:39:54;1.40;;;0.80;;
37677;SDS011;23517;50.390;8.616;2023-07-20T13:42:22;2.10;;;1.02;;
37677;SDS011;23517;50.390;8.616;2023-07-20T13:44:49;1.70;;;1.00;;
37677;SDS011;23517;50.390;8.616;2023-07-20T13:47:16;2.67;;;1.10;;
37677;SDS011;23517;50.390;8.616;2023-07-20T13:49:45;1.33;;;1.00;;
37677;SDS011;23517;50.390;8.616;2023-07-20T13:52:14;2.90;;;1.33;;
37677;SDS011;23517;50.390;8.616;2023-07-20T13:54:44;2.58;;;1.23;;
37677;SDS011;23517;50.390;8.616;2023-07-20T13:57:13;2.45;;;1.00;;
37677;SDS011;23517;50.390;8.616;2023-07-20T13:59:41;2.13;;;1.02;;
37677;SDS011;23517;50.390;8.616;2023-07-20T14:02:09;2.40;;;1.08;;
37677;SDS011;23517;50.390;8.616;2023-07-20T14:04:39;3.88;;;0.88;;
37677;SDS011;23517;50.390;8.616;2023-07-20T14:07:06;1.35;;;0.90;;
37677;SDS011;23517;50.390;8.616;2023-07-20T14:09:34;4.15;;;0.90;;
37677;SDS011;23517;50.390;8.616;2023-07-20T14:12:01;1.73;;;0.70;;
37677;SDS011;23517;50.390;8.616;2023-07-20T14:14:30;1.10;;;0.60;;
37677;SDS011;23517;50.390;8.616;2023-07-20T14:16:57;0.95;;;0.63;;
37677;SDS011;23517;50.390;8.616;2023-07-20T14:19:23;1.60;;;0.90;;
37677;SDS011;23517;50.390;8.616;2023-07-20T14:21:50;2.72;;;0.70;;
37677;SDS011;23517;50.390;8.616;2023-07-20T14:24:18;1.38;;;0.80;;
37677;SDS011;23517;50.390;8.616;2023-07-20T14:26:45;2.20;;;0.80;;
37677;SDS011;23517;50.390;8.616;2023-07-20T14:29:17;2.15;;;0.70;;
37677;SDS011;23517;50.390;8.616;2023-07-20T14:31:45;2.75;;;0.70;;
37677;SDS011;23517;50.390;8.616;2023-07-20T14:34:14;0.98;;;0.57;;
37677;SDS011;23517;50.390;8.616;2023-07-20T14:36:41;1.15;;;0.70;;
37677;SDS011;23517;50.390;8.616;2023-07-20T14:39:08;0.98;;;0.70;;
37677;SDS011;23517;50.390;8.616;2023-07-20T14:41:34;2.50;;;0.88;;
37677;SDS011;23517;50.390;8.616;2023-07-20T14:44:01;6.70;;;0.70;;
37677;SDS011;23517;50.390;8.616;2023-07-20T14:46:28;3.72;;;0.70;;
37677;SDS011;23517;50.390;8.616;2023-07-20T14:48:55;0.93;;;0.80;;
37677;SDS011;23517;50.390;8.616;2023-07-20T14:51:22;0.95;;;0.60;;
37677;SDS011;23517;50.390;8.616;2023-07-20T14:53:49;2.15;;;0.70;;
37677;SDS011;23517;50.390;8.616;2023-07-20T14:56:15;2.25;;;0.55;;
37677;SDS011;23517;50.390;8.616;2023-07-20T14:58:42;0.45;;;0.45;;
37677;SDS011;23517;50.390;8.616;2023-07-20T15:01:09;1.80;;;0.63;;
37677;SDS011;23517;50.390;8.616;2023-07-20T15:03:35;3.50;;;0.70;;
37677;SDS011;23517;50.390;8.616;2023-07-20T15:06:02;1.52;;;0.77;;
37677;SDS011;23517;50.390;8.616;2023-07-20T15:08:30;1.73;;;0.88;;
37677;SDS011;23517;50.390;8.616;2023-07-20T15:10:56;2.97;;;0.90;;
37677;SDS011;23517;50.390;8.616;2023-07-20T15:13:23;3.25;;;0.90;;
37677;SDS011;23517;50.390;8.616;2023-07-20T15:15:50;1.98;;;0.60;;
37677;SDS011;23517;50.390;8.616;2023-07-20T15:18:16;1.98;;;0.90;;